sensor_id;sensor_type;location;lat;lon;timestamp;P1;durP1;ratioP1;P2;durP2;ratioP2
73515;SDS011;61763;51.416;5.442;2023-02-13T00:01:28;45.50;;;13.25;;
73515;SDS011;61763;51.416;5.442;2023-02-13T00:03:54;44.40;;;14.20;;
73515;SDS011;61763;51.416;5.442;2023-02-13T00:06:19;44.05;;;15.23;;
73515;SDS011;61763;51.416;5.442;2023-02-13T00:08:46;56.78;;;18.08;;
73515;SDS011;61763;51.416;5.442;2023-02-13T00:11:11;45.65;;;13.90;;
73515;SDS011;61763;51.416;5.442;2023-02-13T00:13:37;40.20;;;12.93;;
73515;SDS011;61763;51.416;5.442;2023-02-13T00:16:03;42.83;;;14.13;;
73515;SDS011;61763;51.416;5.442;2023-02-13T00:18:32;47.00;;;14.13;;
73515;SDS011;61763;51.416;5.442;2023-02-13T00:20:59;48.40;;;16.30;;
73515;SDS011;61763;51.416;5.442;2023-02-13T00:23:25;46.35;;;13.45;;
73515;SDS011;61763;51.416;5.442;2023-02-13T00:25:51;44.58;;;15.20;;
73515;SDS011;61763;51.416;5.442;2023-02-13T00:28:16;45.42;;;14.88;;
73515;SDS011;61763;51.416;5.442;2023-02-13T00:30:42;47.42;;;14.20;;
73515;SDS011;61763;51.416;5.442;2023-02-13T00:33:07;43.72;;;15.18;;
73515;SDS011;61763;51.416;5.442;2023-02-13T00:35:33;44.42;;;13.82;;
73515;SDS011;61763;51.416;5.442;2023-02-13T00:37:58;38.30;;;13.00;;
73515;SDS011;61763;51.416;5.442;2023-02-13T00:40:24;49.35;;;15.75;;
73515;SDS011;61763;51.416;5.442;2023-02-13T00:42:49;54.17;;;17.15;;
73515;SDS011;61763;51.416;5.442;2023-02-13T00:45:14;55.15;;;16.23;;
73515;SDS011;61763;51.416;5.442;2023-02-13T00:47:40;56.17;;;16.63;;
73515;SDS011;61763;51.416;5.442;2023-02-13T00:50:05;62.97;;;19.50;;
73515;SDS011;61763;51.416;5.442;2023-02-13T00:52:31;59.58;;;16.75;;
73515;SDS011;61763;51.416;5.442;2023-02-13T00:54:57;51.67;;;18.20;;
73515;SDS011;61763;51.416;5.442;2023-02-13T00:57:23;50.70;;;14.80;;
73515;SDS011;61763;51.416;5.442;2023-02-13T00:59:48;56.60;;;16.75;;
73515;SDS011;61763;51.416;5.442;2023-02-13T01:02:14;56.40;;;17.08;;
73515;SDS011;61763;51.416;5.442;2023-02-13T01:04:39;47.83;;;16.13;;
73515;SDS011;61763;51.416;5.442;2023-02-13T01:07:04;52.80;;;15.05;;
73515;SDS011;61763;51.416;5.442;2023-02-13T01:09:30;51.28;;;16.17;;
73515;SDS011;61763;51.416;5.442;2023-02-13T01:11:55;41.70;;;14.27;;
73515;SDS011;61763;51.416;5.442;2023-02-13T01:14:20;56.30;;;16.20;;
73515;SDS011;61763;51.416;5.442;2023-02-13T01:16:46;63.22;;;18.98;;
73515;SDS011;61763;51.416;5.442;2023-02-13T01:19:11;64.30;;;19.80;;
73515;SDS011;61763;51.416;5.442;2023-02-13T01:21:37;66.57;;;19.33;;
73515;SDS011;61763;51.416;5.442;2023-02-13T01:24:03;66.10;;;18.17;;
73515;SDS011;61763;51.416;5.442;2023-02-13T01:26:29;63.17;;;20.25;;
73515;SDS011;61763;51.416;5.442;2023-02-13T01:28:55;69.78;;;17.65;;
73515;SDS011;61763;51.416;5.442;2023-02-13T01:31:22;64.45;;;20.58;;
73515;SDS011;61763;51.416;5.442;2023-02-13T01:33:48;73.55;;;17.75;;
73515;SDS011;61763;51.416;5.442;2023-02-13T01:36:14;73.10;;;17.85;;
73515;SDS011;61763;51.416;5.442;2023-02-13T01:38:40;81.45;;;21.55;;
73515;SDS011;61763;51.416;5.442;2023-02-13T01:41:06;57.58;;;18.13;;
73515;SDS011;61763;51.416;5.442;2023-02-13T01:43:43;65.18;;;21.10;;
73515;SDS011;61763;51.416;5.442;2023-02-13T01:46:18;58.67;;;16.23;;
73515;SDS011;61763;51.416;5.442;2023-02-13T01:48:47;61.13;;;20.20;;
73515;SDS011;61763;51.416;5.442;2023-02-13T01:51:17;59.65;;;18.30;;
73515;SDS011;61763;51.416;5.442;2023-02-13T01:54:06;56.65;;;17.30;;
73515;SDS011;61763;51.416;5.442;2023-02-13T01:56:42;69.78;;;21.02;;
73515;SDS011;61763;51.416;5.442;2023-02-13T01:59:12;53.03;;;16.58;;
73515;SDS011;61763;51.416;5.442;2023-02-13T02:01:42;56.40;;;18.17;;
73515;SDS011;61763;51.416;5.442;2023-02-13T02:04:10;56.72;;;17.38;;
73515;SDS011;61763;51.416;5.442;2023-02-13T02:06:40;53.60;;;17.75;;
73515;SDS011;61763;51.416;5.442;2023-02-13T02:09:11;61.80;;;18.08;;
73515;SDS011;61763;51.416;5.442;2023-02-13T02:11:43;54.50;;;16.70;;
73515;SDS011;61763;51.416;5.442;2023-02-13T02:14:11;51.17;;;16.77;;
73515;SDS011;61763;51.416;5.442;2023-02-13T02:16:36;55.22;;;17.42;;
73515;SDS011;61763;51.416;5.442;2023-02-13T02:19:03;47.42;;;15.30;;
73515;SDS011;61763;51.416;5.442;2023-02-13T02:29:56;62.17;;;16.75;;
73515;SDS011;61763;51.416;5.442;2023-02-13T02:32:47;55.42;;;17.65;;
73515;SDS011;61763;51.416;5.442;2023-02-13T02:37:58;57.53;;;16.38;;
73515;SDS011;61763;51.416;5.442;2023-02-13T02:40:31;60.72;;;16.27;;
73515;SDS011;61763;51.416;5.442;2023-02-13T02:49:33;42.58;;;13.75;;
73515;SDS011;61763;51.416;5.442;2023-02-13T02:52:26;48.15;;;16.83;;
73515;SDS011;61763;51.416;5.442;2023-02-13T02:54:55;56.15;;;17.70;;
73515;SDS011;61763;51.416;5.442;2023-02-13T02:57:32;50.55;;;15.75;;
73515;SDS011;61763;51.416;5.442;2023-02-13T03:00:27;61.33;;;16.35;;
73515;SDS011;61763;51.416;5.442;2023-02-13T03:03:14;67.68;;;19.42;;
73515;SDS011;61763;51.416;5.442;2023-02-13T03:06:01;57.25;;;15.90;;
73515;SDS011;61763;51.416;5.442;2023-02-13T03:08:38;59.17;;;16.15;;
73515;SDS011;61763;51.416;5.442;2023-02-13T03:11:25;55.95;;;15.55;;
73515;SDS011;61763;51.416;5.442;2023-02-13T03:14:10;57.28;;;15.60;;
73515;SDS011;61763;51.416;5.442;2023-02-13T03:16:38;52.83;;;17.02;;
73515;SDS011;61763;51.416;5.442;2023-02-13T03:19:27;50.97;;;14.38;;
73515;SDS011;61763;51.416;5.442;2023-02-13T03:25:07;51.60;;;14.68;;
73515;SDS011;61763;51.416;5.442;2023-02-13T03:41:59;48.22;;;13.48;;
73515;SDS011;61763;51.416;5.442;2023-02-13T03:44:36;39.53;;;13.63;;
73515;SDS011;61763;51.416;5.442;2023-02-13T03:47:03;47.47;;;14.65;;
73515;SDS011;61763;51.416;5.442;2023-02-13T03:55:23;42.80;;;11.40;;
73515;SDS011;61763;51.416;5.442;2023-02-13T03:58:14;50.40;;;15.10;;
73515;SDS011;61763;51.416;5.442;2023-02-13T04:01:05;40.20;;;12.30;;
73515;SDS011;61763;51.416;5.442;2023-02-13T04:06:31;39.50;;;13.45;;
73515;SDS011;61763;51.416;5.442;2023-02-13T04:09:02;42.53;;;11.68;;
73515;SDS011;61763;51.416;5.442;2023-02-13T04:11:32;46.58;;;12.73;;
73515;SDS011;61763;51.416;5.442;2023-02-13T04:14:14;43.95;;;13.18;;
73515;SDS011;61763;51.416;5.442;2023-02-13T04:16:46;41.88;;;11.68;;
73515;SDS011;61763;51.416;5.442;2023-02-13T04:19:16;39.72;;;11.57;;
73515;SDS011;61763;51.416;5.442;2023-02-13T04:21:42;38.28;;;12.40;;
73515;SDS011;61763;51.416;5.442;2023-02-13T04:24:08;39.83;;;10.93;;
73515;SDS011;61763;51.416;5.442;2023-02-13T04:26:35;43.83;;;10.88;;
73515;SDS011;61763;51.416;5.442;2023-02-13T04:29:03;40.05;;;11.38;;
73515;SDS011;61763;51.416;5.442;2023-02-13T04:31:29;41.25;;;12.40;;
73515;SDS011;61763;51.416;5.442;2023-02-13T04:33:54;39.70;;;13.23;;
73515;SDS011;61763;51.416;5.442;2023-02-13T04:36:20;40.78;;;12.40;;
73515;SDS011;61763;51.416;5.442;2023-02-13T04:38:45;41.17;;;10.50;;
73515;SDS011;61763;51.416;5.442;2023-02-13T04:41:11;44.85;;;12.32;;
73515;SDS011;61763;51.416;5.442;2023-02-13T04:43:37;43.47;;;11.35;;
73515;SDS011;61763;51.416;5.442;2023-02-13T04:46:02;43.97;;;10.70;;
73515;SDS011;61763;51.416;5.442;2023-02-13T04:48:28;50.42;;;13.70;;
73515;SDS011;61763;51.416;5.442;2023-02-13T04:50:55;39.92;;;10.90;;
73515;SDS011;61763;51.416;5.442;2023-02-13T04:53:22;42.30;;;12.63;;
73515;SDS011;61763;51.416;5.442;2023-02-13T04:55:47;43.83;;;11.20;;
73515;SDS011;61763;51.416;5.442;2023-02-13T04:58:13;43.05;;;10.90;;
73515;SDS011;61763;51.416;5.442;2023-02-13T05:00:38;45.00;;;11.95;;
73515;SDS011;61763;51.416;5.442;2023-02-13T05:03:05;47.40;;;12.35;;
73515;SDS011;61763;51.416;5.442;2023-02-13T05:05:31;42.63;;;11.82;;
73515;SDS011;61763;51.416;5.442;2023-02-13T05:07:57;42.17;;;11.35;;
73515;SDS011;61763;51.416;5.442;2023-02-13T05:10:22;48.55;;;12.07;;
73515;SDS011;61763;51.416;5.442;2023-02-13T05:12:47;42.40;;;10.93;;
73515;SDS011;61763;51.416;5.442;2023-02-13T05:15:13;35.50;;;11.57;;
73515;SDS011;61763;51.416;5.442;2023-02-13T05:17:38;38.45;;;9.82;;
73515;SDS011;61763;51.416;5.442;2023-02-13T05:20:04;48.70;;;11.80;;
73515;SDS011;61763;51.416;5.442;2023-02-13T05:22:30;38.38;;;11.48;;
73515;SDS011;61763;51.416;5.442;2023-02-13T05:25:14;44.67;;;11.82;;
73515;SDS011;61763;51.416;5.442;2023-02-13T05:27:39;34.40;;;9.85;;
73515;SDS011;61763;51.416;5.442;2023-02-13T05:30:05;47.10;;;13.02;;
73515;SDS011;61763;51.416;5.442;2023-02-13T05:32:31;38.35;;;11.93;;
73515;SDS011;61763;51.416;5.442;2023-02-13T05:34:56;41.75;;;10.15;;
73515;SDS011;61763;51.416;5.442;2023-02-13T05:37:22;34.47;;;9.90;;
73515;SDS011;61763;51.416;5.442;2023-02-13T05:39:47;44.00;;;11.07;;
73515;SDS011;61763;51.416;5.442;2023-02-13T05:42:12;44.40;;;11.48;;
73515;SDS011;61763;51.416;5.442;2023-02-13T05:44:38;37.70;;;11.52;;
73515;SDS011;61763;51.416;5.442;2023-02-13T05:47:03;40.97;;;11.35;;
73515;SDS011;61763;51.416;5.442;2023-02-13T05:49:29;35.58;;;9.75;;
73515;SDS011;61763;51.416;5.442;2023-02-13T05:51:54;39.85;;;9.88;;
73515;SDS011;61763;51.416;5.442;2023-02-13T05:54:19;42.92;;;11.10;;
73515;SDS011;61763;51.416;5.442;2023-02-13T05:56:45;35.17;;;9.77;;
73515;SDS011;61763;51.416;5.442;2023-02-13T05:59:11;32.58;;;9.25;;
73515;SDS011;61763;51.416;5.442;2023-02-13T06:01:36;41.53;;;11.23;;
73515;SDS011;61763;51.416;5.442;2023-02-13T06:04:02;39.28;;;12.05;;
73515;SDS011;61763;51.416;5.442;2023-02-13T06:06:27;39.08;;;9.73;;
73515;SDS011;61763;51.416;5.442;2023-02-13T06:08:53;35.53;;;11.23;;
73515;SDS011;61763;51.416;5.442;2023-02-13T06:11:18;35.90;;;11.90;;
73515;SDS011;61763;51.416;5.442;2023-02-13T06:13:44;40.13;;;10.02;;
73515;SDS011;61763;51.416;5.442;2023-02-13T06:16:10;39.40;;;10.80;;
73515;SDS011;61763;51.416;5.442;2023-02-13T06:18:36;34.22;;;11.38;;
73515;SDS011;61763;51.416;5.442;2023-02-13T06:21:03;35.05;;;10.60;;
73515;SDS011;61763;51.416;5.442;2023-02-13T06:23:30;46.63;;;11.40;;
73515;SDS011;61763;51.416;5.442;2023-02-13T06:25:55;41.50;;;10.30;;
73515;SDS011;61763;51.416;5.442;2023-02-13T06:28:21;34.60;;;10.88;;
73515;SDS011;61763;51.416;5.442;2023-02-13T06:30:46;35.00;;;9.43;;
73515;SDS011;61763;51.416;5.442;2023-02-13T06:33:12;37.00;;;8.95;;
73515;SDS011;61763;51.416;5.442;2023-02-13T06:35:38;37.42;;;10.02;;
73515;SDS011;61763;51.416;5.442;2023-02-13T06:38:04;32.00;;;9.70;;
73515;SDS011;61763;51.416;5.442;2023-02-13T06:40:29;37.70;;;11.07;;
73515;SDS011;61763;51.416;5.442;2023-02-13T06:42:54;36.22;;;11.15;;
73515;SDS011;61763;51.416;5.442;2023-02-13T06:45:20;33.05;;;10.80;;
73515;SDS011;61763;51.416;5.442;2023-02-13T06:47:46;40.40;;;11.65;;
73515;SDS011;61763;51.416;5.442;2023-02-13T06:50:13;31.10;;;10.60;;
73515;SDS011;61763;51.416;5.442;2023-02-13T06:52:44;34.85;;;10.57;;
73515;SDS011;61763;51.416;5.442;2023-02-13T06:55:12;49.60;;;12.23;;
73515;SDS011;61763;51.416;5.442;2023-02-13T06:57:38;55.63;;;10.98;;
73515;SDS011;61763;51.416;5.442;2023-02-13T07:00:05;41.00;;;12.23;;
73515;SDS011;61763;51.416;5.442;2023-02-13T07:02:31;47.17;;;11.27;;
73515;SDS011;61763;51.416;5.442;2023-02-13T07:04:57;28.08;;;9.73;;
73515;SDS011;61763;51.416;5.442;2023-02-13T07:07:24;44.45;;;13.85;;
73515;SDS011;61763;51.416;5.442;2023-02-13T07:09:49;46.70;;;11.30;;
73515;SDS011;61763;51.416;5.442;2023-02-13T07:12:14;37.70;;;12.45;;
73515;SDS011;61763;51.416;5.442;2023-02-13T07:14:40;36.35;;;11.95;;
73515;SDS011;61763;51.416;5.442;2023-02-13T07:17:05;28.20;;;10.25;;
73515;SDS011;61763;51.416;5.442;2023-02-13T07:19:33;33.50;;;13.10;;
73515;SDS011;61763;51.416;5.442;2023-02-13T07:21:59;24.45;;;9.45;;
73515;SDS011;61763;51.416;5.442;2023-02-13T07:24:24;35.55;;;10.20;;
73515;SDS011;61763;51.416;5.442;2023-02-13T07:26:50;28.35;;;11.43;;
73515;SDS011;61763;51.416;5.442;2023-02-13T07:29:15;31.17;;;11.15;;
73515;SDS011;61763;51.416;5.442;2023-02-13T07:31:41;26.95;;;11.43;;
73515;SDS011;61763;51.416;5.442;2023-02-13T07:34:08;27.10;;;11.20;;
73515;SDS011;61763;51.416;5.442;2023-02-13T07:36:33;21.60;;;7.65;;
73515;SDS011;61763;51.416;5.442;2023-02-13T07:38:58;28.85;;;9.50;;
73515;SDS011;61763;51.416;5.442;2023-02-13T07:41:24;24.65;;;9.85;;
73515;SDS011;61763;51.416;5.442;2023-02-13T07:43:50;39.30;;;10.10;;
73515;SDS011;61763;51.416;5.442;2023-02-13T07:46:17;29.13;;;10.02;;
73515;SDS011;61763;51.416;5.442;2023-02-13T07:48:42;17.85;;;9.30;;
73515;SDS011;61763;51.416;5.442;2023-02-13T07:51:08;34.80;;;10.02;;
73515;SDS011;61763;51.416;5.442;2023-02-13T07:53:33;28.13;;;9.20;;
73515;SDS011;61763;51.416;5.442;2023-02-13T07:56:08;19.75;;;9.15;;
73515;SDS011;61763;51.416;5.442;2023-02-13T07:58:37;31.88;;;10.77;;
73515;SDS011;61763;51.416;5.442;2023-02-13T08:01:09;25.08;;;11.13;;
73515;SDS011;61763;51.416;5.442;2023-02-13T08:03:36;25.48;;;10.27;;
73515;SDS011;61763;51.416;5.442;2023-02-13T08:06:02;24.65;;;10.02;;
73515;SDS011;61763;51.416;5.442;2023-02-13T08:08:28;30.75;;;10.13;;
73515;SDS011;61763;51.416;5.442;2023-02-13T08:10:53;24.70;;;11.18;;
73515;SDS011;61763;51.416;5.442;2023-02-13T08:13:37;26.23;;;9.68;;
73515;SDS011;61763;51.416;5.442;2023-02-13T08:16:03;29.88;;;9.38;;
73515;SDS011;61763;51.416;5.442;2023-02-13T08:18:29;27.30;;;11.70;;
73515;SDS011;61763;51.416;5.442;2023-02-13T08:20:55;24.92;;;11.07;;
73515;SDS011;61763;51.416;5.442;2023-02-13T08:23:21;26.13;;;9.68;;
73515;SDS011;61763;51.416;5.442;2023-02-13T08:25:46;27.90;;;11.98;;
73515;SDS011;61763;51.416;5.442;2023-02-13T08:28:13;31.83;;;11.35;;
73515;SDS011;61763;51.416;5.442;2023-02-13T08:30:40;26.92;;;11.80;;
73515;SDS011;61763;51.416;5.442;2023-02-13T08:33:05;26.77;;;10.57;;
73515;SDS011;61763;51.416;5.442;2023-02-13T08:35:32;37.35;;;13.80;;
73515;SDS011;61763;51.416;5.442;2023-02-13T08:38:02;43.42;;;14.60;;
73515;SDS011;61763;51.416;5.442;2023-02-13T08:40:30;36.22;;;12.85;;
73515;SDS011;61763;51.416;5.442;2023-02-13T08:42:59;37.40;;;13.05;;
73515;SDS011;61763;51.416;5.442;2023-02-13T08:45:27;38.30;;;14.65;;
73515;SDS011;61763;51.416;5.442;2023-02-13T08:47:54;40.60;;;15.88;;
73515;SDS011;61763;51.416;5.442;2023-02-13T08:50:22;38.65;;;12.32;;
73515;SDS011;61763;51.416;5.442;2023-02-13T08:52:48;40.00;;;15.55;;
73515;SDS011;61763;51.416;5.442;2023-02-13T08:55:13;38.15;;;13.50;;
73515;SDS011;61763;51.416;5.442;2023-02-13T08:57:39;35.67;;;13.27;;
73515;SDS011;61763;51.416;5.442;2023-02-13T09:00:04;39.83;;;16.73;;
73515;SDS011;61763;51.416;5.442;2023-02-13T09:02:30;41.63;;;16.17;;
73515;SDS011;61763;51.416;5.442;2023-02-13T09:04:57;37.20;;;14.25;;
73515;SDS011;61763;51.416;5.442;2023-02-13T09:07:23;37.95;;;14.38;;
73515;SDS011;61763;51.416;5.442;2023-02-13T09:09:49;39.28;;;14.93;;
73515;SDS011;61763;51.416;5.442;2023-02-13T09:12:14;35.40;;;13.52;;
73515;SDS011;61763;51.416;5.442;2023-02-13T09:14:40;34.70;;;15.07;;
73515;SDS011;61763;51.416;5.442;2023-02-13T09:17:05;35.72;;;14.25;;
73515;SDS011;61763;51.416;5.442;2023-02-13T09:19:32;35.22;;;14.88;;
73515;SDS011;61763;51.416;5.442;2023-02-13T09:21:57;39.95;;;15.38;;
73515;SDS011;61763;51.416;5.442;2023-02-13T09:24:23;43.05;;;15.88;;
73515;SDS011;61763;51.416;5.442;2023-02-13T09:26:48;40.15;;;14.98;;
73515;SDS011;61763;51.416;5.442;2023-02-13T09:29:14;39.30;;;15.88;;
73515;SDS011;61763;51.416;5.442;2023-02-13T09:31:39;40.30;;;16.38;;
73515;SDS011;61763;51.416;5.442;2023-02-13T09:34:05;37.20;;;14.65;;
73515;SDS011;61763;51.416;5.442;2023-02-13T09:36:30;39.03;;;15.50;;
73515;SDS011;61763;51.416;5.442;2023-02-13T09:38:57;38.05;;;15.82;;
73515;SDS011;61763;51.416;5.442;2023-02-13T09:41:36;39.75;;;13.57;;
73515;SDS011;61763;51.416;5.442;2023-02-13T09:44:15;34.03;;;15.00;;
73515;SDS011;61763;51.416;5.442;2023-02-13T09:47:05;30.33;;;13.43;;
73515;SDS011;61763;51.416;5.442;2023-02-13T09:49:43;30.33;;;12.73;;
73515;SDS011;61763;51.416;5.442;2023-02-13T09:52:34;32.22;;;13.00;;
73515;SDS011;61763;51.416;5.442;2023-02-13T09:55:02;36.67;;;14.85;;
73515;SDS011;61763;51.416;5.442;2023-02-13T09:57:40;28.38;;;11.98;;
73515;SDS011;61763;51.416;5.442;2023-02-13T10:00:17;25.63;;;11.77;;
73515;SDS011;61763;51.416;5.442;2023-02-13T10:08:43;25.25;;;12.88;;
73515;SDS011;61763;51.416;5.442;2023-02-13T10:14:38;28.20;;;11.25;;
73515;SDS011;61763;51.416;5.442;2023-02-13T10:17:39;25.35;;;11.05;;
73515;SDS011;61763;51.416;5.442;2023-02-13T10:22:54;22.20;;;10.50;;
73515;SDS011;61763;51.416;5.442;2023-02-13T10:25:24;28.67;;;10.23;;
73515;SDS011;61763;51.416;5.442;2023-02-13T10:27:59;23.42;;;11.25;;
73515;SDS011;61763;51.416;5.442;2023-02-13T10:30:35;22.20;;;9.82;;
73515;SDS011;61763;51.416;5.442;2023-02-13T10:33:27;24.02;;;9.90;;
73515;SDS011;61763;51.416;5.442;2023-02-13T10:36:04;22.33;;;9.98;;
73515;SDS011;61763;51.416;5.442;2023-02-13T10:38:43;25.25;;;10.82;;
73515;SDS011;61763;51.416;5.442;2023-02-13T10:44:33;21.98;;;9.27;;
73515;SDS011;61763;51.416;5.442;2023-02-13T10:50:09;16.60;;;8.05;;
73515;SDS011;61763;51.416;5.442;2023-02-13T10:58:45;17.33;;;6.55;;
73515;SDS011;61763;51.416;5.442;2023-02-13T11:01:24;17.27;;;7.07;;
73515;SDS011;61763;51.416;5.442;2023-02-13T11:04:16;14.35;;;7.15;;
73515;SDS011;61763;51.416;5.442;2023-02-13T11:06:56;16.17;;;7.47;;
73515;SDS011;61763;51.416;5.442;2023-02-13T11:09:24;12.65;;;6.95;;
73515;SDS011;61763;51.416;5.442;2023-02-13T11:11:51;13.20;;;6.47;;
73515;SDS011;61763;51.416;5.442;2023-02-13T11:14:22;11.95;;;5.25;;
73515;SDS011;61763;51.416;5.442;2023-02-13T11:16:50;15.73;;;7.28;;
73515;SDS011;61763;51.416;5.442;2023-02-13T11:19:28;12.93;;;6.22;;
73515;SDS011;61763;51.416;5.442;2023-02-13T11:22:10;15.38;;;7.40;;
73515;SDS011;61763;51.416;5.442;2023-02-13T11:27:06;12.75;;;5.78;;
73515;SDS011;61763;51.416;5.442;2023-02-13T11:29:37;11.07;;;6.13;;
73515;SDS011;61763;51.416;5.442;2023-02-13T11:32:24;14.10;;;7.72;;
73515;SDS011;61763;51.416;5.442;2023-02-13T11:34:51;17.63;;;7.13;;
73515;SDS011;61763;51.416;5.442;2023-02-13T11:39:50;15.00;;;7.35;;
73515;SDS011;61763;51.416;5.442;2023-02-13T11:42:24;14.45;;;6.95;;
73515;SDS011;61763;51.416;5.442;2023-02-13T11:47:35;13.65;;;7.07;;
73515;SDS011;61763;51.416;5.442;2023-02-13T11:50:04;15.75;;;7.22;;
73515;SDS011;61763;51.416;5.442;2023-02-13T11:52:51;17.02;;;8.32;;
73515;SDS011;61763;51.416;5.442;2023-02-13T11:55:30;16.65;;;7.20;;
73515;SDS011;61763;51.416;5.442;2023-02-13T12:00:51;15.63;;;8.00;;
73515;SDS011;61763;51.416;5.442;2023-02-13T12:03:33;15.80;;;7.03;;
73515;SDS011;61763;51.416;5.442;2023-02-13T12:08:38;14.15;;;7.43;;
73515;SDS011;61763;51.416;5.442;2023-02-13T12:13:50;16.05;;;5.50;;
73515;SDS011;61763;51.416;5.442;2023-02-13T12:18:51;12.20;;;5.70;;
73515;SDS011;61763;51.416;5.442;2023-02-13T12:26:54;14.18;;;7.55;;
73515;SDS011;61763;51.416;5.442;2023-02-13T12:32:18;15.00;;;7.10;;
73515;SDS011;61763;51.416;5.442;2023-02-13T12:39:57;15.45;;;7.57;;
73515;SDS011;61763;51.416;5.442;2023-02-13T12:51:26;13.85;;;7.00;;
73515;SDS011;61763;51.416;5.442;2023-02-13T12:54:13;14.77;;;7.05;;
73515;SDS011;61763;51.416;5.442;2023-02-13T13:02:45;13.25;;;7.25;;
73515;SDS011;61763;51.416;5.442;2023-02-13T13:13:55;12.27;;;6.13;;
73515;SDS011;61763;51.416;5.442;2023-02-13T13:16:34;10.57;;;5.72;;
73515;SDS011;61763;51.416;5.442;2023-02-13T13:27:48;15.68;;;6.38;;
73515;SDS011;61763;51.416;5.442;2023-02-13T13:33:12;14.13;;;6.40;;
73515;SDS011;61763;51.416;5.442;2023-02-13T13:35:40;13.32;;;7.32;;
73515;SDS011;61763;51.416;5.442;2023-02-13T13:43:16;12.77;;;6.53;;
73515;SDS011;61763;51.416;5.442;2023-02-13T13:51:15;15.80;;;6.00;;
73515;SDS011;61763;51.416;5.442;2023-02-13T13:56:23;12.95;;;6.22;;
73515;SDS011;61763;51.416;5.442;2023-02-13T13:58:49;16.35;;;6.38;;
73515;SDS011;61763;51.416;5.442;2023-02-13T14:06:19;13.13;;;6.82;;
73515;SDS011;61763;51.416;5.442;2023-02-13T14:11:51;12.70;;;6.55;;
73515;SDS011;61763;51.416;5.442;2023-02-13T14:16:52;11.43;;;5.35;;
73515;SDS011;61763;51.416;5.442;2023-02-13T14:21:51;12.57;;;6.82;;
73515;SDS011;61763;51.416;5.442;2023-02-13T14:24:17;14.15;;;6.10;;
73515;SDS011;61763;51.416;5.442;2023-02-13T14:26:56;14.27;;;7.13;;
73515;SDS011;61763;51.416;5.442;2023-02-13T14:29:26;13.45;;;6.70;;
73515;SDS011;61763;51.416;5.442;2023-02-13T14:32:54;11.13;;;4.80;;
73515;SDS011;61763;51.416;5.442;2023-02-13T14:35:04;11.23;;;4.80;;
73515;SDS011;61763;51.416;5.442;2023-02-13T14:37:48;9.88;;;5.72;;
73515;SDS011;61763;51.416;5.442;2023-02-13T14:42:53;14.20;;;6.15;;
73515;SDS011;61763;51.416;5.442;2023-02-13T14:45:26;12.52;;;6.90;;
73515;SDS011;61763;51.416;5.442;2023-02-13T14:47:56;11.02;;;5.70;;
73515;SDS011;61763;51.416;5.442;2023-02-13T14:50:28;11.32;;;5.95;;
73515;SDS011;61763;51.416;5.442;2023-02-13T14:52:59;11.45;;;6.05;;
73515;SDS011;61763;51.416;5.442;2023-02-13T14:55:32;14.20;;;6.80;;
73515;SDS011;61763;51.416;5.442;2023-02-13T15:00:40;12.10;;;6.43;;
73515;SDS011;61763;51.416;5.442;2023-02-13T15:03:27;10.63;;;6.07;;
73515;SDS011;61763;51.416;5.442;2023-02-13T15:05:58;8.70;;;5.03;;
73515;SDS011;61763;51.416;5.442;2023-02-13T15:08:33;11.43;;;5.90;;
73515;SDS011;61763;51.416;5.442;2023-02-13T15:11:03;11.88;;;5.75;;
73515;SDS011;61763;51.416;5.442;2023-02-13T15:13:49;11.27;;;5.30;;
73515;SDS011;61763;51.416;5.442;2023-02-13T15:16:14;11.35;;;6.38;;
73515;SDS011;61763;51.416;5.442;2023-02-13T15:21:13;12.63;;;5.00;;
73515;SDS011;61763;51.416;5.442;2023-02-13T15:23:42;12.95;;;6.43;;
73515;SDS011;61763;51.416;5.442;2023-02-13T15:26:15;12.13;;;5.47;;
73515;SDS011;61763;51.416;5.442;2023-02-13T15:28:55;11.38;;;5.60;;
73515;SDS011;61763;51.416;5.442;2023-02-13T15:31:23;15.38;;;6.38;;
73515;SDS011;61763;51.416;5.442;2023-02-13T15:33:49;11.43;;;4.88;;
73515;SDS011;61763;51.416;5.442;2023-02-13T15:36:19;11.85;;;6.50;;
73515;SDS011;61763;51.416;5.442;2023-02-13T15:38:46;10.93;;;5.55;;
73515;SDS011;61763;51.416;5.442;2023-02-13T15:41:19;10.52;;;4.45;;
73515;SDS011;61763;51.416;5.442;2023-02-13T15:43:48;9.88;;;3.70;;
73515;SDS011;61763;51.416;5.442;2023-02-13T15:46:20;10.77;;;5.90;;
73515;SDS011;61763;51.416;5.442;2023-02-13T15:48:53;10.75;;;5.10;;
73515;SDS011;61763;51.416;5.442;2023-02-13T15:51:23;12.07;;;5.57;;
73515;SDS011;61763;51.416;5.442;2023-02-13T15:53:51;12.05;;;6.40;;
73515;SDS011;61763;51.416;5.442;2023-02-13T15:56:22;12.25;;;5.88;;
73515;SDS011;61763;51.416;5.442;2023-02-13T15:58:48;11.98;;;6.63;;
73515;SDS011;61763;51.416;5.442;2023-02-13T16:01:15;13.15;;;7.00;;
73515;SDS011;61763;51.416;5.442;2023-02-13T16:03:42;12.85;;;6.50;;
73515;SDS011;61763;51.416;5.442;2023-02-13T16:06:16;12.40;;;6.57;;
73515;SDS011;61763;51.416;5.442;2023-02-13T16:08:51;12.73;;;5.88;;
73515;SDS011;61763;51.416;5.442;2023-02-13T16:11:19;12.55;;;6.47;;
73515;SDS011;61763;51.416;5.442;2023-02-13T16:16:21;12.23;;;6.63;;
73515;SDS011;61763;51.416;5.442;2023-02-13T16:18:48;11.38;;;5.60;;
73515;SDS011;61763;51.416;5.442;2023-02-13T16:21:14;11.15;;;6.03;;
73515;SDS011;61763;51.416;5.442;2023-02-13T16:23:45;16.58;;;7.40;;
73515;SDS011;61763;51.416;5.442;2023-02-13T16:26:11;14.35;;;6.68;;
73515;SDS011;61763;51.416;5.442;2023-02-13T16:28:39;10.05;;;5.35;;
73515;SDS011;61763;51.416;5.442;2023-02-13T16:31:04;12.43;;;6.10;;
73515;SDS011;61763;51.416;5.442;2023-02-13T16:33:30;11.85;;;5.82;;
73515;SDS011;61763;51.416;5.442;2023-02-13T16:51:11;13.48;;;6.68;;
73515;SDS011;61763;51.416;5.442;2023-02-13T16:53:37;12.52;;;5.95;;
73515;SDS011;61763;51.416;5.442;2023-02-13T16:56:08;13.55;;;5.90;;
73515;SDS011;61763;51.416;5.442;2023-02-13T16:58:35;13.45;;;6.90;;
73515;SDS011;61763;51.416;5.442;2023-02-13T17:01:02;12.77;;;5.60;;
73515;SDS011;61763;51.416;5.442;2023-02-13T17:03:32;14.23;;;5.82;;
73515;SDS011;61763;51.416;5.442;2023-02-13T17:06:01;14.20;;;7.00;;
73515;SDS011;61763;51.416;5.442;2023-02-13T17:08:27;14.20;;;5.78;;
73515;SDS011;61763;51.416;5.442;2023-02-13T17:13:30;13.50;;;7.05;;
73515;SDS011;61763;51.416;5.442;2023-02-13T17:15:57;15.60;;;7.13;;
73515;SDS011;61763;51.416;5.442;2023-02-13T17:18:24;16.45;;;7.32;;
73515;SDS011;61763;51.416;5.442;2023-02-13T17:20:50;15.15;;;6.78;;
73515;SDS011;61763;51.416;5.442;2023-02-13T17:23:22;16.73;;;8.80;;
73515;SDS011;61763;51.416;5.442;2023-02-13T17:25:49;21.20;;;7.95;;
73515;SDS011;61763;51.416;5.442;2023-02-13T17:30:45;14.27;;;6.40;;
73515;SDS011;61763;51.416;5.442;2023-02-13T17:33:21;14.60;;;5.75;;
73515;SDS011;61763;51.416;5.442;2023-02-13T17:35:48;15.27;;;6.13;;
73515;SDS011;61763;51.416;5.442;2023-02-13T17:38:15;17.08;;;5.82;;
73515;SDS011;61763;51.416;5.442;2023-02-13T17:40:42;15.98;;;6.25;;
73515;SDS011;61763;51.416;5.442;2023-02-13T17:43:12;14.60;;;5.95;;
73515;SDS011;61763;51.416;5.442;2023-02-13T17:45:40;17.13;;;7.18;;
73515;SDS011;61763;51.416;5.442;2023-02-13T17:48:06;16.85;;;8.15;;
73515;SDS011;61763;51.416;5.442;2023-02-13T17:50:33;15.23;;;5.70;;
73515;SDS011;61763;51.416;5.442;2023-02-13T17:53:06;15.02;;;6.72;;